sensor_id;sensor_type;location;lat;lon;timestamp;P1;durP1;ratioP1;P2;durP2;ratioP2
15240;SDS011;7723;52.170;9.978;2023-04-07T00:01:18;10.80;;;6.30;;
15240;SDS011;7723;52.170;9.978;2023-04-07T00:03:45;9.97;;;5.90;;
15240;SDS011;7723;52.170;9.978;2023-04-07T00:06:12;10.87;;;5.87;;
15240;SDS011;7723;52.170;9.978;2023-04-07T00:08:39;8.50;;;5.37;;
15240;SDS011;7723;52.170;9.978;2023-04-07T00:11:08;9.67;;;6.23;;
15240;SDS011;7723;52.170;9.978;2023-04-07T00:13:35;9.73;;;6.03;;
15240;SDS011;7723;52.170;9.978;2023-04-07T00:16:02;10.40;;;6.33;;
15240;SDS011;7723;52.170;9.978;2023-04-07T00:18:29;9.70;;;6.30;;
15240;SDS011;7723;52.170;9.978;2023-04-07T00:20:56;10.23;;;6.10;;
15240;SDS011;7723;52.170;9.978;2023-04-07T00:23:23;11.50;;;6.10;;
15240;SDS011;7723;52.170;9.978;2023-04-07T00:25:51;11.27;;;6.17;;
15240;SDS011;7723;52.170;9.978;2023-04-07T00:28:19;8.50;;;5.50;;
15240;SDS011;7723;52.170;9.978;2023-04-07T00:30:46;9.50;;;5.40;;
15240;SDS011;7723;52.170;9.978;2023-04-07T00:33:13;9.83;;;5.87;;
15240;SDS011;7723;52.170;9.978;2023-04-07T00:35:41;8.57;;;6.00;;
15240;SDS011;7723;52.170;9.978;2023-04-07T00:38:08;9.03;;;5.70;;
15240;SDS011;7723;52.170;9.978;2023-04-07T00:40:35;10.50;;;6.03;;
15240;SDS011;7723;52.170;9.978;2023-04-07T00:43:02;9.80;;;6.00;;
15240;SDS011;7723;52.170;9.978;2023-04-07T00:45:30;9.70;;;6.00;;
15240;SDS011;7723;52.170;9.978;2023-04-07T00:47:58;9.17;;;5.70;;
15240;SDS011;7723;52.170;9.978;2023-04-07T00:50:25;12.37;;;6.53;;
15240;SDS011;7723;52.170;9.978;2023-04-07T00:52:52;9.63;;;5.80;;
15240;SDS011;7723;52.170;9.978;2023-04-07T00:55:21;7.87;;;5.83;;
15240;SDS011;7723;52.170;9.978;2023-04-07T00:57:48;8.80;;;6.03;;
15240;SDS011;7723;52.170;9.978;2023-04-07T01:00:16;9.13;;;6.17;;
15240;SDS011;7723;52.170;9.978;2023-04-07T01:02:47;11.13;;;6.20;;
15240;SDS011;7723;52.170;9.978;2023-04-07T01:05:22;9.93;;;6.57;;
15240;SDS011;7723;52.170;9.978;2023-04-07T01:08:12;8.93;;;6.03;;
15240;SDS011;7723;52.170;9.978;2023-04-07T01:10:45;11.50;;;6.57;;
15240;SDS011;7723;52.170;9.978;2023-04-07T01:13:20;9.57;;;6.10;;
15240;SDS011;7723;52.170;9.978;2023-04-07T01:15:52;10.07;;;6.10;;
15240;SDS011;7723;52.170;9.978;2023-04-07T01:18:23;11.63;;;6.40;;
15240;SDS011;7723;52.170;9.978;2023-04-07T01:20:55;9.17;;;6.10;;
15240;SDS011;7723;52.170;9.978;2023-04-07T01:23:31;9.63;;;6.40;;
15240;SDS011;7723;52.170;9.978;2023-04-07T01:26:16;11.70;;;7.00;;
15240;SDS011;7723;52.170;9.978;2023-04-07T01:28:50;11.53;;;6.30;;
15240;SDS011;7723;52.170;9.978;2023-04-07T01:31:31;12.90;;;6.53;;
15240;SDS011;7723;52.170;9.978;2023-04-07T01:33:59;11.80;;;6.77;;
15240;SDS011;7723;52.170;9.978;2023-04-07T01:36:29;11.67;;;7.03;;
15240;SDS011;7723;52.170;9.978;2023-04-07T01:38:58;13.90;;;7.40;;
15240;SDS011;7723;52.170;9.978;2023-04-07T01:41:26;11.20;;;7.60;;
15240;SDS011;7723;52.170;9.978;2023-04-07T01:43:54;11.20;;;6.97;;
15240;SDS011;7723;52.170;9.978;2023-04-07T01:46:22;11.10;;;6.63;;
15240;SDS011;7723;52.170;9.978;2023-04-07T01:48:51;10.90;;;7.43;;
15240;SDS011;7723;52.170;9.978;2023-04-07T01:51:20;14.03;;;6.97;;
15240;SDS011;7723;52.170;9.978;2023-04-07T01:53:49;8.67;;;6.60;;
15240;SDS011;7723;52.170;9.978;2023-04-07T01:56:16;11.90;;;6.90;;
15240;SDS011;7723;52.170;9.978;2023-04-07T01:58:43;10.70;;;6.57;;
15240;SDS011;7723;52.170;9.978;2023-04-07T02:01:11;10.87;;;6.80;;
15240;SDS011;7723;52.170;9.978;2023-04-07T02:03:40;11.47;;;6.97;;
15240;SDS011;7723;52.170;9.978;2023-04-07T02:06:12;12.73;;;7.47;;
15240;SDS011;7723;52.170;9.978;2023-04-07T02:08:45;11.80;;;7.23;;
15240;SDS011;7723;52.170;9.978;2023-04-07T02:11:14;12.47;;;6.90;;
15240;SDS011;7723;52.170;9.978;2023-04-07T02:13:43;10.53;;;6.43;;
15240;SDS011;7723;52.170;9.978;2023-04-07T02:16:12;11.70;;;6.87;;
15240;SDS011;7723;52.170;9.978;2023-04-07T02:18:40;10.63;;;6.57;;
15240;SDS011;7723;52.170;9.978;2023-04-07T02:21:09;10.53;;;6.90;;
15240;SDS011;7723;52.170;9.978;2023-04-07T02:23:39;9.33;;;6.47;;
15240;SDS011;7723;52.170;9.978;2023-04-07T02:26:06;11.50;;;6.37;;
15240;SDS011;7723;52.170;9.978;2023-04-07T02:28:33;12.00;;;7.10;;
15240;SDS011;7723;52.170;9.978;2023-04-07T02:31:00;9.80;;;6.70;;
15240;SDS011;7723;52.170;9.978;2023-04-07T02:33:27;11.63;;;7.10;;
15240;SDS011;7723;52.170;9.978;2023-04-07T02:35:55;9.50;;;6.77;;
15240;SDS011;7723;52.170;9.978;2023-04-07T02:38:23;11.77;;;6.93;;
15240;SDS011;7723;52.170;9.978;2023-04-07T02:40:51;10.53;;;7.30;;
15240;SDS011;7723;52.170;9.978;2023-04-07T02:43:19;10.03;;;6.60;;
15240;SDS011;7723;52.170;9.978;2023-04-07T02:45:46;10.90;;;7.33;;
15240;SDS011;7723;52.170;9.978;2023-04-07T02:48:13;11.67;;;7.63;;
15240;SDS011;7723;52.170;9.978;2023-04-07T02:50:41;12.63;;;7.50;;
15240;SDS011;7723;52.170;9.978;2023-04-07T02:53:08;9.73;;;7.27;;
15240;SDS011;7723;52.170;9.978;2023-04-07T02:55:36;12.47;;;7.37;;
15240;SDS011;7723;52.170;9.978;2023-04-07T02:58:03;12.27;;;7.40;;
15240;SDS011;7723;52.170;9.978;2023-04-07T03:00:31;12.53;;;7.60;;
15240;SDS011;7723;52.170;9.978;2023-04-07T03:02:59;14.07;;;8.57;;
15240;SDS011;7723;52.170;9.978;2023-04-07T03:05:26;15.33;;;8.40;;
15240;SDS011;7723;52.170;9.978;2023-04-07T03:07:53;14.37;;;8.20;;
15240;SDS011;7723;52.170;9.978;2023-04-07T03:10:20;10.73;;;8.00;;
15240;SDS011;7723;52.170;9.978;2023-04-07T03:12:49;13.03;;;8.50;;
15240;SDS011;7723;52.170;9.978;2023-04-07T03:15:16;14.97;;;8.27;;
15240;SDS011;7723;52.170;9.978;2023-04-07T03:17:43;14.43;;;9.20;;
15240;SDS011;7723;52.170;9.978;2023-04-07T03:20:10;16.27;;;9.40;;
15240;SDS011;7723;52.170;9.978;2023-04-07T03:22:37;13.13;;;8.73;;
15240;SDS011;7723;52.170;9.978;2023-04-07T03:25:05;13.53;;;9.40;;
15240;SDS011;7723;52.170;9.978;2023-04-07T03:27:32;14.33;;;9.30;;
15240;SDS011;7723;52.170;9.978;2023-04-07T03:30:01;12.83;;;8.00;;
15240;SDS011;7723;52.170;9.978;2023-04-07T03:32:29;14.60;;;9.17;;
15240;SDS011;7723;52.170;9.978;2023-04-07T03:34:56;15.73;;;9.60;;
15240;SDS011;7723;52.170;9.978;2023-04-07T03:37:23;13.87;;;8.83;;
15240;SDS011;7723;52.170;9.978;2023-04-07T03:39:50;12.63;;;8.57;;
15240;SDS011;7723;52.170;9.978;2023-04-07T03:42:17;16.27;;;9.10;;
15240;SDS011;7723;52.170;9.978;2023-04-07T03:44:44;15.07;;;8.83;;
15240;SDS011;7723;52.170;9.978;2023-04-07T03:47:13;15.60;;;8.80;;
15240;SDS011;7723;52.170;9.978;2023-04-07T03:49:40;16.83;;;9.17;;
15240;SDS011;7723;52.170;9.978;2023-04-07T03:52:07;16.73;;;9.33;;
15240;SDS011;7723;52.170;9.978;2023-04-07T03:54:34;15.57;;;10.10;;
15240;SDS011;7723;52.170;9.978;2023-04-07T03:57:01;13.27;;;9.50;;
15240;SDS011;7723;52.170;9.978;2023-04-07T03:59:28;16.57;;;9.70;;
15240;SDS011;7723;52.170;9.978;2023-04-07T04:01:55;16.27;;;8.93;;
15240;SDS011;7723;52.170;9.978;2023-04-07T04:04:24;16.73;;;9.17;;
15240;SDS011;7723;52.170;9.978;2023-04-07T04:06:51;14.27;;;8.83;;
15240;SDS011;7723;52.170;9.978;2023-04-07T04:09:18;13.67;;;8.40;;
15240;SDS011;7723;52.170;9.978;2023-04-07T04:11:46;13.03;;;8.37;;
15240;SDS011;7723;52.170;9.978;2023-04-07T04:14:13;13.93;;;8.90;;
15240;SDS011;7723;52.170;9.978;2023-04-07T04:16:40;12.90;;;8.43;;
15240;SDS011;7723;52.170;9.978;2023-04-07T04:19:07;11.93;;;7.83;;
15240;SDS011;7723;52.170;9.978;2023-04-07T04:21:35;12.80;;;8.70;;
15240;SDS011;7723;52.170;9.978;2023-04-07T04:24:03;12.93;;;8.40;;
15240;SDS011;7723;52.170;9.978;2023-04-07T04:26:30;13.10;;;8.47;;
15240;SDS011;7723;52.170;9.978;2023-04-07T04:28:57;12.10;;;8.20;;
15240;SDS011;7723;52.170;9.978;2023-04-07T04:31:24;13.50;;;9.03;;
15240;SDS011;7723;52.170;9.978;2023-04-07T04:33:52;15.07;;;9.63;;
15240;SDS011;7723;52.170;9.978;2023-04-07T04:36:19;16.67;;;9.77;;
15240;SDS011;7723;52.170;9.978;2023-04-07T04:38:47;15.83;;;9.40;;
15240;SDS011;7723;52.170;9.978;2023-04-07T04:41:14;15.20;;;9.63;;
15240;SDS011;7723;52.170;9.978;2023-04-07T04:43:41;16.07;;;9.77;;
15240;SDS011;7723;52.170;9.978;2023-04-07T04:46:08;13.23;;;9.57;;
15240;SDS011;7723;52.170;9.978;2023-04-07T04:48:35;15.67;;;9.53;;
15240;SDS011;7723;52.170;9.978;2023-04-07T04:51:03;14.73;;;9.60;;
15240;SDS011;7723;52.170;9.978;2023-04-07T04:53:30;17.50;;;9.87;;
15240;SDS011;7723;52.170;9.978;2023-04-07T04:55:58;17.07;;;10.33;;
15240;SDS011;7723;52.170;9.978;2023-04-07T04:58:25;16.07;;;10.40;;
15240;SDS011;7723;52.170;9.978;2023-04-07T05:00:53;15.10;;;10.20;;
15240;SDS011;7723;52.170;9.978;2023-04-07T05:03:22;16.53;;;10.27;;
15240;SDS011;7723;52.170;9.978;2023-04-07T05:05:50;14.70;;;9.40;;
15240;SDS011;7723;52.170;9.978;2023-04-07T05:08:17;18.73;;;10.87;;
15240;SDS011;7723;52.170;9.978;2023-04-07T05:10:45;14.77;;;9.47;;
15240;SDS011;7723;52.170;9.978;2023-04-07T05:13:13;16.40;;;10.70;;
15240;SDS011;7723;52.170;9.978;2023-04-07T05:15:40;14.30;;;10.00;;
15240;SDS011;7723;52.170;9.978;2023-04-07T05:18:07;15.13;;;9.90;;
15240;SDS011;7723;52.170;9.978;2023-04-07T05:20:34;16.83;;;9.97;;
15240;SDS011;7723;52.170;9.978;2023-04-07T05:23:02;14.47;;;9.73;;
15240;SDS011;7723;52.170;9.978;2023-04-07T05:25:29;16.87;;;9.57;;
15240;SDS011;7723;52.170;9.978;2023-04-07T05:27:56;18.50;;;10.17;;
15240;SDS011;7723;52.170;9.978;2023-04-07T05:30:25;16.23;;;10.47;;
15240;SDS011;7723;52.170;9.978;2023-04-07T05:32:52;15.27;;;9.87;;
15240;SDS011;7723;52.170;9.978;2023-04-07T05:35:19;15.50;;;9.87;;
15240;SDS011;7723;52.170;9.978;2023-04-07T05:37:46;16.63;;;10.47;;
15240;SDS011;7723;52.170;9.978;2023-04-07T05:40:14;16.07;;;9.87;;
15240;SDS011;7723;52.170;9.978;2023-04-07T05:42:41;14.27;;;9.13;;
15240;SDS011;7723;52.170;9.978;2023-04-07T05:45:08;12.73;;;9.27;;
15240;SDS011;7723;52.170;9.978;2023-04-07T05:47:37;13.60;;;9.43;;
15240;SDS011;7723;52.170;9.978;2023-04-07T05:50:05;16.33;;;9.63;;
15240;SDS011;7723;52.170;9.978;2023-04-07T05:52:33;14.93;;;9.57;;
15240;SDS011;7723;52.170;9.978;2023-04-07T05:55:00;14.13;;;9.20;;
15240;SDS011;7723;52.170;9.978;2023-04-07T05:57:27;14.47;;;10.00;;
15240;SDS011;7723;52.170;9.978;2023-04-07T05:59:55;14.40;;;9.80;;
15240;SDS011;7723;52.170;9.978;2023-04-07T06:02:22;14.07;;;8.93;;
15240;SDS011;7723;52.170;9.978;2023-04-07T06:04:50;14.73;;;9.50;;
15240;SDS011;7723;52.170;9.978;2023-04-07T06:07:17;15.27;;;9.87;;
15240;SDS011;7723;52.170;9.978;2023-04-07T06:09:45;14.30;;;9.18;;
15240;SDS011;7723;52.170;9.978;2023-04-07T06:12:12;12.38;;;9.05;;
15240;SDS011;7723;52.170;9.978;2023-04-07T06:14:41;13.95;;;9.55;;
15240;SDS011;7723;52.170;9.978;2023-04-07T06:17:08;13.25;;;9.68;;
15240;SDS011;7723;52.170;9.978;2023-04-07T06:19:35;11.52;;;8.70;;
15240;SDS011;7723;52.170;9.978;2023-04-07T06:22:03;11.52;;;8.18;;
15240;SDS011;7723;52.170;9.978;2023-04-07T06:24:30;11.20;;;8.70;;
15240;SDS011;7723;52.170;9.978;2023-04-07T06:26:57;10.85;;;8.23;;
15240;SDS011;7723;52.170;9.978;2023-04-07T06:29:26;11.45;;;7.95;;
15240;SDS011;7723;52.170;9.978;2023-04-07T06:31:53;11.25;;;7.60;;
15240;SDS011;7723;52.170;9.978;2023-04-07T06:34:20;11.68;;;8.18;;
15240;SDS011;7723;52.170;9.978;2023-04-07T06:36:47;9.50;;;7.90;;
15240;SDS011;7723;52.170;9.978;2023-04-07T06:39:16;10.50;;;8.20;;
15240;SDS011;7723;52.170;9.978;2023-04-07T06:41:44;10.57;;;7.95;;
15240;SDS011;7723;52.170;9.978;2023-04-07T06:44:11;11.70;;;8.43;;
15240;SDS011;7723;52.170;9.978;2023-04-07T06:46:38;10.68;;;8.45;;
15240;SDS011;7723;52.170;9.978;2023-04-07T06:49:06;11.15;;;9.05;;
15240;SDS011;7723;52.170;9.978;2023-04-07T06:51:33;9.82;;;8.50;;
15240;SDS011;7723;52.170;9.978;2023-04-07T06:54:00;10.52;;;9.40;;
15240;SDS011;7723;52.170;9.978;2023-04-07T06:56:30;12.07;;;9.23;;
15240;SDS011;7723;52.170;9.978;2023-04-07T06:58:57;14.23;;;9.25;;
15240;SDS011;7723;52.170;9.978;2023-04-07T07:01:24;11.60;;;9.38;;
15240;SDS011;7723;52.170;9.978;2023-04-07T07:03:51;10.85;;;8.65;;
15240;SDS011;7723;52.170;9.978;2023-04-07T07:06:18;12.68;;;9.25;;
15240;SDS011;7723;52.170;9.978;2023-04-07T07:08:45;13.27;;;8.77;;
15240;SDS011;7723;52.170;9.978;2023-04-07T07:11:12;9.85;;;8.18;;
15240;SDS011;7723;52.170;9.978;2023-04-07T07:13:42;11.55;;;8.82;;
15240;SDS011;7723;52.170;9.978;2023-04-07T07:16:09;9.18;;;8.05;;
15240;SDS011;7723;52.170;9.978;2023-04-07T07:18:36;12.43;;;8.70;;
15240;SDS011;7723;52.170;9.978;2023-04-07T07:21:04;10.00;;;8.15;;
15240;SDS011;7723;52.170;9.978;2023-04-07T07:23:31;9.90;;;7.75;;
15240;SDS011;7723;52.170;9.978;2023-04-07T07:25:58;9.18;;;7.50;;
15240;SDS011;7723;52.170;9.978;2023-04-07T07:28:25;9.43;;;7.38;;
15240;SDS011;7723;52.170;9.978;2023-04-07T07:30:54;10.75;;;7.50;;
15240;SDS011;7723;52.170;9.978;2023-04-07T07:33:21;9.93;;;7.50;;
15240;SDS011;7723;52.170;9.978;2023-04-07T07:35:48;11.55;;;7.80;;
15240;SDS011;7723;52.170;9.978;2023-04-07T07:38:16;9.20;;;7.35;;
15240;SDS011;7723;52.170;9.978;2023-04-07T07:40:43;10.77;;;8.13;;
15240;SDS011;7723;52.170;9.978;2023-04-07T07:43:11;10.32;;;8.10;;
15240;SDS011;7723;52.170;9.978;2023-04-07T07:45:38;9.70;;;7.80;;
15240;SDS011;7723;52.170;9.978;2023-04-07T07:48:06;10.05;;;7.10;;
15240;SDS011;7723;52.170;9.978;2023-04-07T07:50:33;9.40;;;7.18;;
15240;SDS011;7723;52.170;9.978;2023-04-07T07:53:01;9.32;;;7.65;;
15240;SDS011;7723;52.170;9.978;2023-04-07T07:55:28;10.05;;;7.43;;
15240;SDS011;7723;52.170;9.978;2023-04-07T07:57:55;10.07;;;7.90;;
15240;SDS011;7723;52.170;9.978;2023-04-07T08:00:22;9.57;;;7.50;;
15240;SDS011;7723;52.170;9.978;2023-04-07T08:02:49;12.10;;;9.35;;
15240;SDS011;7723;52.170;9.978;2023-04-07T08:05:18;11.57;;;9.20;;
15240;SDS011;7723;52.170;9.978;2023-04-07T08:07:45;9.68;;;8.20;;
15240;SDS011;7723;52.170;9.978;2023-04-07T08:10:13;9.23;;;8.02;;
15240;SDS011;7723;52.170;9.978;2023-04-07T08:12:40;10.40;;;8.52;;
15240;SDS011;7723;52.170;9.978;2023-04-07T08:15:07;11.35;;;8.95;;
15240;SDS011;7723;52.170;9.978;2023-04-07T08:17:35;10.73;;;8.75;;
15240;SDS011;7723;52.170;9.978;2023-04-07T08:20:03;10.90;;;8.30;;
15240;SDS011;7723;52.170;9.978;2023-04-07T08:22:33;12.15;;;8.50;;
15240;SDS011;7723;52.170;9.978;2023-04-07T08:25:00;10.43;;;8.35;;
15240;SDS011;7723;52.170;9.978;2023-04-07T08:27:27;10.25;;;8.23;;
15240;SDS011;7723;52.170;9.978;2023-04-07T08:29:58;12.48;;;8.93;;
15240;SDS011;7723;52.170;9.978;2023-04-07T08:32:32;9.45;;;7.80;;
15240;SDS011;7723;52.170;9.978;2023-04-07T08:35:00;9.45;;;7.97;;
15240;SDS011;7723;52.170;9.978;2023-04-07T08:37:28;8.75;;;7.45;;
15240;SDS011;7723;52.170;9.978;2023-04-07T08:39:56;10.32;;;8.52;;
15240;SDS011;7723;52.170;9.978;2023-04-07T08:42:25;9.65;;;7.53;;
15240;SDS011;7723;52.170;9.978;2023-04-07T08:44:54;11.07;;;7.57;;
15240;SDS011;7723;52.170;9.978;2023-04-07T08:47:22;10.93;;;8.18;;
15240;SDS011;7723;52.170;9.978;2023-04-07T08:49:51;10.43;;;7.57;;
15240;SDS011;7723;52.170;9.978;2023-04-07T08:52:21;11.32;;;8.60;;
15240;SDS011;7723;52.170;9.978;2023-04-07T08:54:54;9.90;;;7.78;;
15240;SDS011;7723;52.170;9.978;2023-04-07T08:57:24;8.07;;;7.22;;
15240;SDS011;7723;52.170;9.978;2023-04-07T08:59:51;8.98;;;7.78;;
15240;SDS011;7723;52.170;9.978;2023-04-07T09:02:19;8.93;;;7.25;;
15240;SDS011;7723;52.170;9.978;2023-04-07T09:04:47;9.55;;;7.07;;
15240;SDS011;7723;52.170;9.978;2023-04-07T09:07:14;9.13;;;6.35;;
15240;SDS011;7723;52.170;9.978;2023-04-07T09:09:41;6.95;;;5.93;;
15240;SDS011;7723;52.170;9.978;2023-04-07T09:12:08;7.68;;;5.75;;
15240;SDS011;7723;52.170;9.978;2023-04-07T09:14:37;7.85;;;6.07;;
15240;SDS011;7723;52.170;9.978;2023-04-07T09:17:04;9.32;;;6.13;;
15240;SDS011;7723;52.170;9.978;2023-04-07T09:19:31;7.57;;;5.80;;
15240;SDS011;7723;52.170;9.978;2023-04-07T09:21:59;9.27;;;6.15;;
15240;SDS011;7723;52.170;9.978;2023-04-07T09:24:26;7.80;;;5.97;;
15240;SDS011;7723;52.170;9.978;2023-04-07T09:27:07;8.48;;;5.75;;
15240;SDS011;7723;52.170;9.978;2023-04-07T09:29:37;8.23;;;6.15;;
15240;SDS011;7723;52.170;9.978;2023-04-07T09:32:05;7.35;;;5.82;;
15240;SDS011;7723;52.170;9.978;2023-04-07T09:34:33;9.23;;;6.25;;
15240;SDS011;7723;52.170;9.978;2023-04-07T09:37:05;6.68;;;5.53;;
15240;SDS011;7723;52.170;9.978;2023-04-07T09:39:33;8.43;;;6.60;;
15240;SDS011;7723;52.170;9.978;2023-04-07T09:42:14;8.60;;;5.80;;
15240;SDS011;7723;52.170;9.978;2023-04-07T09:44:43;8.38;;;5.65;;
15240;SDS011;7723;52.170;9.978;2023-04-07T09:47:10;7.63;;;6.22;;
15240;SDS011;7723;52.170;9.978;2023-04-07T09:49:47;6.95;;;5.82;;
15240;SDS011;7723;52.170;9.978;2023-04-07T09:52:16;8.40;;;7.05;;
15240;SDS011;7723;52.170;9.978;2023-04-07T09:54:44;8.25;;;5.82;;
15240;SDS011;7723;52.170;9.978;2023-04-07T09:57:13;7.82;;;6.35;;
15240;SDS011;7723;52.170;9.978;2023-04-07T09:59:44;11.10;;;5.85;;
15240;SDS011;7723;52.170;9.978;2023-04-07T10:02:13;7.20;;;5.65;;
15240;SDS011;7723;52.170;9.978;2023-04-07T10:04:40;7.35;;;5.72;;
15240;SDS011;7723;52.170;9.978;2023-04-07T10:07:08;7.55;;;5.97;;
15240;SDS011;7723;52.170;9.978;2023-04-07T10:09:35;7.57;;;5.45;;
15240;SDS011;7723;52.170;9.978;2023-04-07T10:12:02;7.28;;;5.45;;
15240;SDS011;7723;52.170;9.978;2023-04-07T10:14:30;6.72;;;5.00;;
15240;SDS011;7723;52.170;9.978;2023-04-07T10:16:59;6.72;;;5.47;;
15240;SDS011;7723;52.170;9.978;2023-04-07T10:19:28;7.80;;;6.20;;
15240;SDS011;7723;52.170;9.978;2023-04-07T10:21:57;7.55;;;5.60;;
15240;SDS011;7723;52.170;9.978;2023-04-07T10:24:34;8.88;;;5.78;;
15240;SDS011;7723;52.170;9.978;2023-04-07T10:27:12;7.75;;;5.13;;
15240;SDS011;7723;52.170;9.978;2023-04-07T10:29:43;7.45;;;5.43;;
15240;SDS011;7723;52.170;9.978;2023-04-07T10:32:15;10.18;;;5.93;;
15240;SDS011;7723;52.170;9.978;2023-04-07T10:34:54;7.22;;;5.30;;
15240;SDS011;7723;52.170;9.978;2023-04-07T10:37:23;7.32;;;4.65;;
15240;SDS011;7723;52.170;9.978;2023-04-07T10:42:54;8.48;;;5.88;;
15240;SDS011;7723;52.170;9.978;2023-04-07T10:48:19;6.47;;;4.97;;
15240;SDS011;7723;52.170;9.978;2023-04-07T10:59:34;8.82;;;5.20;;
15240;SDS011;7723;52.170;9.978;2023-04-07T11:05:01;7.22;;;5.10;;
15240;SDS011;7723;52.170;9.978;2023-04-07T11:10:15;9.38;;;5.50;;
15240;SDS011;7723;52.170;9.978;2023-04-07T11:12:43;9.15;;;6.28;;
15240;SDS011;7723;52.170;9.978;2023-04-07T11:15:24;9.18;;;4.75;;
15240;SDS011;7723;52.170;9.978;2023-04-07T11:18:08;9.30;;;5.40;;
15240;SDS011;7723;52.170;9.978;2023-04-07T11:20:42;8.02;;;4.85;;
15240;SDS011;7723;52.170;9.978;2023-04-07T11:23:14;8.38;;;5.13;;
15240;SDS011;7723;52.170;9.978;2023-04-07T11:25:43;8.38;;;5.43;;
15240;SDS011;7723;52.170;9.978;2023-04-07T11:28:11;7.40;;;5.28;;
15240;SDS011;7723;52.170;9.978;2023-04-07T11:30:43;8.82;;;5.30;;
15240;SDS011;7723;52.170;9.978;2023-04-07T11:33:14;11.38;;;6.03;;
15240;SDS011;7723;52.170;9.978;2023-04-07T11:35:47;10.27;;;6.03;;
15240;SDS011;7723;52.170;9.978;2023-04-07T11:38:15;11.02;;;7.03;;
15240;SDS011;7723;52.170;9.978;2023-04-07T11:40:43;10.60;;;6.22;;
15240;SDS011;7723;52.170;9.978;2023-04-07T11:43:17;11.05;;;6.22;;
15240;SDS011;7723;52.170;9.978;2023-04-07T11:45:45;10.02;;;5.55;;
15240;SDS011;7723;52.170;9.978;2023-04-07T11:48:29;12.00;;;6.63;;
15240;SDS011;7723;52.170;9.978;2023-04-07T11:50:58;7.70;;;5.28;;
15240;SDS011;7723;52.170;9.978;2023-04-07T11:53:26;10.40;;;6.25;;
15240;SDS011;7723;52.170;9.978;2023-04-07T11:56:00;9.75;;;6.18;;
15240;SDS011;7723;52.170;9.978;2023-04-07T11:58:29;8.73;;;5.82;;
15240;SDS011;7723;52.170;9.978;2023-04-07T12:00:56;8.88;;;5.85;;
15240;SDS011;7723;52.170;9.978;2023-04-07T12:03:29;9.18;;;6.38;;
15240;SDS011;7723;52.170;9.978;2023-04-07T12:05:58;10.25;;;5.90;;
15240;SDS011;7723;52.170;9.978;2023-04-07T12:08:36;7.78;;;5.68;;
15240;SDS011;7723;52.170;9.978;2023-04-07T12:11:04;10.68;;;5.78;;
15240;SDS011;7723;52.170;9.978;2023-04-07T12:13:32;9.85;;;6.03;;
15240;SDS011;7723;52.170;9.978;2023-04-07T12:15:59;9.77;;;5.80;;
15240;SDS011;7723;52.170;9.978;2023-04-07T12:18:27;9.32;;;6.07;;
15240;SDS011;7723;52.170;9.978;2023-04-07T12:20:54;9.48;;;5.65;;
15240;SDS011;7723;52.170;9.978;2023-04-07T12:23:24;10.15;;;6.15;;
15240;SDS011;7723;52.170;9.978;2023-04-07T12:25:51;10.15;;;6.15;;
15240;SDS011;7723;52.170;9.978;2023-04-07T12:28:18;7.43;;;5.50;;
15240;SDS011;7723;52.170;9.978;2023-04-07T12:30:45;8.45;;;6.25;;
15240;SDS011;7723;52.170;9.978;2023-04-07T12:33:13;8.32;;;5.97;;
15240;SDS011;7723;52.170;9.978;2023-04-07T12:35:40;8.75;;;6.05;;
15240;SDS011;7723;52.170;9.978;2023-04-07T12:38:07;7.65;;;5.78;;
15240;SDS011;7723;52.170;9.978;2023-04-07T12:40:36;11.38;;;5.93;;
15240;SDS011;7723;52.170;9.978;2023-04-07T12:43:03;9.57;;;6.38;;
15240;SDS011;7723;52.170;9.978;2023-04-07T12:45:32;8.82;;;6.25;;
15240;SDS011;7723;52.170;9.978;2023-04-07T12:48:00;7.93;;;5.65;;
15240;SDS011;7723;52.170;9.978;2023-04-07T12:50:28;8.90;;;6.32;;
15240;SDS011;7723;52.170;9.978;2023-04-07T12:52:55;11.05;;;6.45;;
15240;SDS011;7723;52.170;9.978;2023-04-07T12:55:27;9.10;;;6.07;;
15240;SDS011;7723;52.170;9.978;2023-04-07T12:57:56;8.88;;;6.35;;
15240;SDS011;7723;52.170;9.978;2023-04-07T13:00:23;10.25;;;6.28;;
15240;SDS011;7723;52.170;9.978;2023-04-07T13:02:50;10.00;;;6.50;;
15240;SDS011;7723;52.170;9.978;2023-04-07T13:05:17;9.13;;;6.32;;
15240;SDS011;7723;52.170;9.978;2023-04-07T13:07:44;7.63;;;5.55;;
15240;SDS011;7723;52.170;9.978;2023-04-07T13:10:11;9.45;;;6.05;;
15240;SDS011;7723;52.170;9.978;2023-04-07T13:12:38;6.80;;;5.20;;
15240;SDS011;7723;52.170;9.978;2023-04-07T13:15:07;8.07;;;6.47;;
15240;SDS011;7723;52.170;9.978;2023-04-07T13:17:35;8.48;;;6.60;;
15240;SDS011;7723;52.170;9.978;2023-04-07T13:20:07;7.55;;;5.45;;
15240;SDS011;7723;52.170;9.978;2023-04-07T13:22:35;8.30;;;5.82;;
15240;SDS011;7723;52.170;9.978;2023-04-07T13:25:03;9.73;;;6.38;;
15240;SDS011;7723;52.170;9.978;2023-04-07T13:27:31;10.93;;;5.97;;
15240;SDS011;7723;52.170;9.978;2023-04-07T13:29:58;7.80;;;5.35;;
15240;SDS011;7723;52.170;9.978;2023-04-07T13:32:26;7.78;;;5.78;;
15240;SDS011;7723;52.170;9.978;2023-04-07T13:34:53;8.90;;;5.70;;
15240;SDS011;7723;52.170;9.978;2023-04-07T13:37:21;6.40;;;5.05;;
15240;SDS011;7723;52.170;9.978;2023-04-07T13:39:48;7.82;;;5.45;;
15240;SDS011;7723;52.170;9.978;2023-04-07T13:42:16;7.55;;;5.82;;
15240;SDS011;7723;52.170;9.978;2023-04-07T13:44:44;9.48;;;5.20;;
15240;SDS011;7723;52.170;9.978;2023-04-07T13:47:12;8.27;;;5.78;;
15240;SDS011;7723;52.170;9.978;2023-04-07T13:49:45;8.75;;;5.55;;
15240;SDS011;7723;52.170;9.978;2023-04-07T13:52:12;7.22;;;4.95;;
15240;SDS011;7723;52.170;9.978;2023-04-07T13:54:39;6.38;;;4.97;;
15240;SDS011;7723;52.170;9.978;2023-04-07T13:57:07;7.82;;;5.15;;
15240;SDS011;7723;52.170;9.978;2023-04-07T13:59:34;9.38;;;5.20;;
15240;SDS011;7723;52.170;9.978;2023-04-07T14:02:01;9.25;;;5.32;;
15240;SDS011;7723;52.170;9.978;2023-04-07T14:04:29;8.13;;;5.00;;
15240;SDS011;7723;52.170;9.978;2023-04-07T14:06:57;7.28;;;5.00;;
15240;SDS011;7723;52.170;9.978;2023-04-07T14:09:24;7.80;;;4.88;;
15240;SDS011;7723;52.170;9.978;2023-04-07T14:11:51;7.80;;;4.93;;
15240;SDS011;7723;52.170;9.978;2023-04-07T14:14:18;6.82;;;4.38;;
15240;SDS011;7723;52.170;9.978;2023-04-07T14:16:45;6.80;;;4.68;;
15240;SDS011;7723;52.170;9.978;2023-04-07T14:19:15;6.90;;;4.63;;
15240;SDS011;7723;52.170;9.978;2023-04-07T14:21:42;7.25;;;4.88;;
15240;SDS011;7723;52.170;9.978;2023-04-07T14:24:10;9.85;;;4.75;;
15240;SDS011;7723;52.170;9.978;2023-04-07T14:26:37;6.60;;;4.95;;
15240;SDS011;7723;52.170;9.978;2023-04-07T14:29:04;7.47;;;4.65;;
15240;SDS011;7723;52.170;9.978;2023-04-07T14:31:31;7.15;;;4.75;;
15240;SDS011;7723;52.170;9.978;2023-04-07T14:33:58;8.73;;;4.10;;
15240;SDS011;7723;52.170;9.978;2023-04-07T14:36:25;5.82;;;4.55;;
15240;SDS011;7723;52.170;9.978;2023-04-07T14:38:53;4.15;;;3.70;;
15240;SDS011;7723;52.170;9.978;2023-04-07T14:41:22;4.75;;;4.18;;
15240;SDS011;7723;52.170;9.978;2023-04-07T14:43:49;7.45;;;4.45;;
15240;SDS011;7723;52.170;9.978;2023-04-07T14:46:20;5.63;;;4.07;;
15240;SDS011;7723;52.170;9.978;2023-04-07T14:48:47;6.25;;;4.22;;
15240;SDS011;7723;52.170;9.978;2023-04-07T14:51:14;5.60;;;3.90;;
15240;SDS011;7723;52.170;9.978;2023-04-07T14:53:41;4.18;;;3.40;;
15240;SDS011;7723;52.170;9.978;2023-04-07T14:56:10;9.18;;;3.60;;
15240;SDS011;7723;52.170;9.978;2023-04-07T14:58:38;6.82;;;4.25;;
15240;SDS011;7723;52.170;9.978;2023-04-07T15:01:06;4.95;;;3.85;;
15240;SDS011;7723;52.170;9.978;2023-04-07T15:03:33;6.95;;;3.72;;
15240;SDS011;7723;52.170;9.978;2023-04-07T15:06:00;4.78;;;3.53;;
15240;SDS011;7723;52.170;9.978;2023-04-07T15:08:31;4.57;;;3.60;;
15240;SDS011;7723;52.170;9.978;2023-04-07T15:10:58;5.72;;;3.75;;
15240;SDS011;7723;52.170;9.978;2023-04-07T15:13:25;6.68;;;3.60;;
15240;SDS011;7723;52.170;9.978;2023-04-07T15:15:54;4.57;;;3.40;;
15240;SDS011;7723;52.170;9.978;2023-04-07T15:18:21;5.78;;;3.13;;
15240;SDS011;7723;52.170;9.978;2023-04-07T15:20:48;4.18;;;3.13;;